createdAt,value
2018-04-18T00:00:02.021Z,18.70
2018-04-18T00:02:28.055Z,18.93
2018-04-18T00:04:54.066Z,20.87
2018-04-18T00:07:20.086Z,18.40
2018-04-18T00:09:46.102Z,26.80
2018-04-18T00:12:12.866Z,19.07
2018-04-18T00:14:38.879Z,19.03
2018-04-18T00:17:04.879Z,19.50
2018-04-18T00:19:30.908Z,19.73
2018-04-18T00:21:56.906Z,22.97
2018-04-18T00:24:22.921Z,19.30
2018-04-18T00:26:49.671Z,25.77
2018-04-18T00:29:15.698Z,20.23
2018-04-18T00:31:41.843Z,21.00
2018-04-18T00:34:07.857Z,19.53
2018-04-18T00:36:33.877Z,18.97
2018-04-18T00:38:59.893Z,20.07
2018-04-18T00:41:25.904Z,17.30
2018-04-18T00:43:52.676Z,20.20
2018-04-18T00:46:18.690Z,18.63
2018-04-18T00:48:45.465Z,17.60
2018-04-18T00:51:12.217Z,22.00
2018-04-18T00:53:38.232Z,21.43
2018-04-18T00:56:04.977Z,17.77
2018-04-18T00:58:31.727Z,18.07
2018-04-18T01:00:58.474Z,18.67
2018-04-18T01:03:25.228Z,18.20
2018-04-18T01:05:51.979Z,19.37
2018-04-18T01:08:18.754Z,18.60
2018-04-18T01:10:44.761Z,19.37
2018-04-18T01:13:10.778Z,19.23
2018-04-18T01:15:45.080Z,20.70
2018-04-18T01:18:11.135Z,16.03
2018-04-18T01:20:37.147Z,21.43
2018-04-18T01:23:03.170Z,15.90
2018-04-18T01:25:29.181Z,19.20
2018-04-18T01:27:55.938Z,19.50
2018-04-18T01:30:22.676Z,20.87
2018-04-18T01:32:48.677Z,22.73
2018-04-18T01:35:14.693Z,23.17
2018-04-18T01:37:40.705Z,34.23
2018-04-18T01:40:06.722Z,18.93
2018-04-18T01:42:33.494Z,22.63
2018-04-18T01:44:59.540Z,22.60
2018-04-18T01:47:25.543Z,20.00
2018-04-18T01:49:52.311Z,21.70
2018-04-18T01:52:19.080Z,19.73
2018-04-18T01:54:45.098Z,24.17
2018-04-18T01:57:11.852Z,23.37
2018-04-18T01:59:38.606Z,24.33
2018-04-18T02:02:05.355Z,25.63
2018-04-18T02:04:32.114Z,21.97
2018-04-18T02:06:58.133Z,23.30
2018-04-18T02:09:24.886Z,20.43
2018-04-18T02:11:51.637Z,21.30
2018-04-18T02:14:18.397Z,25.70
2018-04-18T02:16:45.156Z,24.70
2018-04-18T02:19:11.912Z,24.90
2018-04-18T02:21:37.913Z,22.80
2018-04-18T02:24:03.933Z,23.23
2018-04-18T02:26:29.964Z,22.53
2018-04-18T02:28:55.985Z,26.70
2018-04-18T02:31:22.019Z,26.37
2018-04-18T02:33:48.076Z,22.47
2018-04-18T02:36:14.093Z,23.13
2018-04-18T02:38:40.102Z,25.53
2018-04-18T02:41:06.131Z,25.70
2018-04-18T02:43:32.138Z,23.53
2018-04-18T02:45:58.158Z,27.67
2018-04-18T02:48:24.169Z,22.37
2018-04-18T02:50:50.198Z,23.70
2018-04-18T02:53:16.217Z,28.73
2018-04-18T02:55:42.301Z,25.43
2018-04-18T02:58:08.315Z,24.33
2018-04-18T03:00:34.338Z,31.50
2018-04-18T03:03:00.346Z,27.80
2018-04-18T03:05:26.366Z,30.30
2018-04-18T03:07:53.171Z,22.80
2018-04-18T03:10:19.182Z,27.70
2018-04-18T03:12:45.188Z,26.87
2018-04-18T03:15:11.964Z,30.83
2018-04-18T03:17:37.980Z,25.17
2018-04-18T03:20:04.763Z,26.00
2018-04-18T03:22:30.781Z,23.50
2018-04-18T03:24:57.541Z,27.30
2018-04-18T03:27:23.537Z,31.60
2018-04-18T03:29:49.554Z,30.17
2018-04-18T03:32:15.570Z,32.47
2018-04-18T03:34:41.582Z,34.60
2018-04-18T03:37:07.633Z,28.70
2018-04-18T03:39:33.676Z,28.10
2018-04-18T03:41:59.671Z,32.67
2018-04-18T03:44:26.449Z,26.50
2018-04-18T03:46:53.211Z,28.70
2018-04-18T03:49:19.217Z,29.50
2018-04-18T03:51:45.973Z,28.03
2018-04-18T03:54:12.714Z,30.83
2018-04-18T03:56:39.469Z,26.10
2018-04-18T03:59:06.231Z,27.23
2018-04-18T04:01:32.991Z,25.97
2018-04-18T04:03:59.356Z,27.83
2018-04-18T04:06:25.370Z,36.07
2018-04-18T04:08:52.109Z,30.23
2018-04-18T04:11:18.879Z,33.80
2018-04-18T04:13:44.894Z,28.23
2018-04-18T04:16:23.338Z,31.60
2018-04-18T04:19:02.503Z,27.40
2018-04-18T04:21:40.981Z,28.23
2018-04-18T04:24:20.845Z,33.57
2018-04-18T04:26:46.865Z,33.03
2018-04-18T04:29:12.876Z,32.00
2018-04-18T04:31:38.944Z,35.53
2018-04-18T04:34:04.980Z,27.97
2018-04-18T04:36:30.991Z,35.80
2018-04-18T04:38:57.006Z,28.20
2018-04-18T04:41:23.013Z,30.67
2018-04-18T04:43:49.765Z,31.97
2018-04-18T04:46:16.534Z,31.23
2018-04-18T04:48:43.273Z,31.67
2018-04-18T04:51:10.039Z,30.20
2018-04-18T04:53:36.796Z,26.93
2018-04-18T04:56:03.563Z,31.13
2018-04-18T04:58:29.581Z,29.90
2018-04-18T05:00:56.352Z,43.90
2018-04-18T05:03:22.352Z,31.03
2018-04-18T05:05:48.371Z,29.17
2018-04-18T05:08:14.386Z,31.37
2018-04-18T05:10:40.397Z,34.43
2018-04-18T05:13:06.415Z,28.80
2018-04-18T05:15:32.426Z,26.07
2018-04-18T05:17:58.439Z,29.07
2018-04-18T05:20:24.450Z,28.90
2018-04-18T05:22:50.462Z,26.23
2018-04-18T05:25:16.466Z,29.80
2018-04-18T05:27:42.473Z,28.47
2018-04-18T05:30:08.509Z,29.70
2018-04-18T05:32:34.525Z,27.70
2018-04-18T05:35:00.538Z,33.83
2018-04-18T05:37:26.562Z,29.60
2018-04-18T05:39:53.316Z,29.33
2018-04-18T05:42:20.077Z,31.23
2018-04-18T05:44:46.092Z,30.07
2018-04-18T05:47:12.850Z,34.00
2018-04-18T05:49:39.608Z,22.57
2018-04-18T05:52:06.359Z,29.57
2018-04-18T05:54:33.401Z,29.87
2018-04-18T05:57:00.263Z,25.20
2018-04-18T05:59:27.022Z,28.27
2018-04-18T06:01:53.790Z,27.77
2018-04-18T06:04:19.814Z,27.10
2018-04-18T06:06:46.550Z,23.03
2018-04-18T06:09:12.561Z,26.10
2018-04-18T06:11:38.575Z,22.87
2018-04-18T06:14:04.595Z,27.77
2018-04-18T06:16:30.616Z,30.00
2018-04-18T06:18:56.643Z,24.33
2018-04-18T06:21:23.386Z,31.17
2018-04-18T06:23:50.143Z,29.70
2018-04-18T06:26:16.913Z,24.90
2018-04-18T06:28:42.940Z,26.93
2018-04-18T06:31:09.697Z,29.30
2018-04-18T06:33:35.732Z,29.67
2018-04-18T06:36:01.754Z,26.43
2018-04-18T06:38:28.509Z,26.10
2018-04-18T06:40:55.262Z,24.13
2018-04-18T06:43:22.007Z,25.60
2018-04-18T06:45:48.755Z,24.17
2018-04-18T06:48:14.772Z,25.27
2018-04-18T06:50:40.782Z,26.27
2018-04-18T06:53:06.794Z,23.10
2018-04-18T06:55:32.801Z,26.77
2018-04-18T06:57:59.554Z,25.23
2018-04-18T07:00:26.306Z,23.40
2018-04-18T07:02:53.054Z,26.63
2018-04-18T07:05:19.809Z,25.40
2018-04-18T07:07:46.556Z,25.33
2018-04-18T07:10:12.572Z,28.13
2018-04-18T07:12:38.574Z,27.17
2018-04-18T07:15:04.594Z,25.47
2018-04-18T07:17:30.607Z,25.73
2018-04-18T07:19:57.363Z,28.00
2018-04-18T07:22:24.108Z,32.57
2018-04-18T07:24:50.853Z,27.43
2018-04-18T07:27:16.881Z,26.27
2018-04-18T07:29:42.901Z,32.83
2018-04-18T07:32:08.910Z,26.90
2018-04-18T07:34:34.934Z,29.10
2018-04-18T07:37:00.934Z,32.03
2018-04-18T07:39:27.683Z,31.43
2018-04-18T07:41:53.692Z,32.03
2018-04-18T07:44:19.703Z,27.70
2018-04-18T07:46:45.715Z,25.60
2018-04-18T07:49:11.766Z,28.73
2018-04-18T07:51:37.775Z,33.03
2018-04-18T07:54:04.540Z,31.07
2018-04-18T07:56:30.566Z,27.80
2018-04-18T07:58:57.328Z,24.47
2018-04-18T08:01:23.341Z,22.73
2018-04-18T08:03:50.097Z,26.17
2018-04-18T08:06:16.862Z,29.67
2018-04-18T08:08:43.616Z,28.77
2018-04-18T08:11:10.370Z,29.37
2018-04-18T08:13:37.122Z,27.23
2018-04-18T08:16:03.884Z,25.47
2018-04-18T08:18:29.893Z,27.23
2018-04-18T08:20:56.637Z,27.10
2018-04-18T08:23:22.656Z,27.57
2018-04-18T08:25:48.686Z,25.13
2018-04-18T08:28:14.697Z,22.77
2018-04-18T08:30:40.719Z,21.47
2018-04-18T08:33:06.738Z,21.83
2018-04-18T08:35:32.761Z,22.73
2018-04-18T08:37:59.532Z,21.60
2018-04-18T08:40:25.550Z,20.77
2018-04-18T08:42:52.318Z,21.40
2018-04-18T08:45:18.330Z,20.23
2018-04-18T08:47:44.342Z,20.03
2018-04-18T08:50:10.354Z,25.77
2018-04-18T08:52:36.383Z,21.50
2018-04-18T08:55:02.421Z,18.40
2018-04-18T08:57:28.448Z,15.67
2018-04-18T08:59:54.473Z,23.13
2018-04-18T09:02:20.494Z,17.23
2018-04-18T09:04:47.248Z,20.90
2018-04-18T09:07:14.005Z,17.97
2018-04-18T09:09:40.026Z,17.53
2018-04-18T09:12:06.796Z,13.40
2018-04-18T09:14:32.809Z,13.37
2018-04-18T09:16:59.565Z,14.13
2018-04-18T09:19:26.318Z,16.80
2018-04-18T09:21:53.074Z,13.70
2018-04-18T09:24:19.823Z,13.70
2018-04-18T09:26:46.572Z,14.93
2018-04-18T09:29:13.329Z,13.10
2018-04-18T09:31:40.091Z,13.67
2018-04-18T09:34:06.846Z,14.77
2018-04-18T09:36:33.602Z,13.77
2018-04-18T09:38:59.626Z,12.70
2018-04-18T09:41:26.389Z,16.63
2018-04-18T09:43:52.390Z,17.47
2018-04-18T09:46:18.398Z,15.60
2018-04-18T09:48:44.406Z,17.93
2018-04-18T09:51:10.418Z,19.30
2018-04-18T09:53:37.170Z,14.20
2018-04-18T09:56:03.933Z,16.80
2018-04-18T09:58:30.028Z,12.50
2018-04-18T10:00:56.949Z,11.73
2018-04-18T10:03:22.961Z,11.77
2018-04-18T10:05:49.140Z,11.47
2018-04-18T10:08:15.166Z,9.00
2018-04-18T10:10:41.181Z,11.47
2018-04-18T10:13:14.082Z,10.00
2018-04-18T10:15:40.094Z,10.90
2018-04-18T10:18:06.866Z,9.73
2018-04-18T10:20:32.868Z,10.00
2018-04-18T10:22:58.902Z,13.80
2018-04-18T10:25:24.926Z,14.23
2018-04-18T10:27:50.958Z,10.50
2018-04-18T10:30:16.974Z,11.70
2018-04-18T10:32:43.016Z,11.00
2018-04-18T10:35:09.034Z,9.50
2018-04-18T10:37:35.059Z,10.43
2018-04-18T10:40:01.079Z,11.63
2018-04-18T10:42:27.092Z,7.63
2018-04-18T10:44:53.864Z,9.10
2018-04-18T10:47:19.873Z,9.37
2018-04-18T10:49:45.889Z,7.50
2018-04-18T10:52:11.915Z,7.93
2018-04-18T10:54:37.937Z,9.60
2018-04-18T10:57:03.955Z,8.60
2018-04-18T10:59:29.981Z,9.47
2018-04-18T11:01:55.998Z,11.93
2018-04-18T11:04:22.749Z,12.27
2018-04-18T11:06:49.496Z,9.20
2018-04-18T11:09:16.467Z,6.33
2018-04-18T11:11:42.482Z,7.10
2018-04-18T11:14:08.494Z,9.60
2018-04-18T11:16:34.501Z,6.10
2018-04-18T11:19:00.517Z,7.70
2018-04-18T11:21:26.524Z,4.20
2018-04-18T11:23:52.537Z,5.53
2018-04-18T11:26:18.551Z,12.83
2018-04-18T11:28:44.558Z,8.07
2018-04-18T11:31:10.578Z,10.60
2018-04-18T11:33:37.351Z,6.37
2018-04-18T11:36:03.378Z,7.10
2018-04-18T11:38:29.394Z,6.30
2018-04-18T11:40:56.159Z,5.87
2018-04-18T11:43:22.916Z,6.80
2018-04-18T11:45:48.931Z,4.43
2018-04-18T11:48:15.692Z,5.57
2018-04-18T11:50:42.447Z,5.13
2018-04-18T11:53:09.201Z,9.05
2018-04-18T11:55:35.965Z,5.80
2018-04-18T11:58:01.986Z,6.55
2018-04-18T12:00:28.744Z,4.17
2018-04-18T12:02:55.489Z,4.97
2018-04-18T12:05:22.245Z,5.43
2018-04-18T12:07:48.989Z,4.97
2018-04-18T12:10:15.746Z,5.37
2018-04-18T12:12:42.499Z,4.77
2018-04-18T12:15:09.258Z,7.40
2018-04-18T12:17:36.015Z,6.17
2018-04-18T12:20:02.798Z,8.07
2018-04-18T12:22:28.833Z,4.07
2018-04-18T12:24:54.816Z,5.23
2018-04-18T12:27:20.826Z,7.45
2018-04-18T12:29:46.829Z,6.57
2018-04-18T12:32:12.854Z,4.43
2018-04-18T12:34:38.860Z,5.40
2018-04-18T12:37:05.627Z,6.10
2018-04-18T12:39:32.381Z,6.28
2018-04-18T12:41:59.146Z,5.83
2018-04-18T12:44:25.163Z,4.43
2018-04-18T12:46:51.917Z,7.10
2018-04-18T12:49:17.927Z,3.87
2018-04-18T12:51:44.690Z,7.13
2018-04-18T12:54:10.702Z,11.20
2018-04-18T12:56:36.730Z,7.77
2018-04-18T12:59:02.757Z,10.00
2018-04-18T13:01:28.774Z,8.52
2018-04-18T13:03:54.783Z,8.55
2018-04-18T13:06:21.581Z,8.18
2018-04-18T13:08:47.550Z,10.10
2018-04-18T13:11:13.570Z,6.70
2018-04-18T13:13:39.581Z,6.50
2018-04-18T13:16:05.684Z,7.30
2018-04-18T13:18:32.452Z,7.90
2018-04-18T13:20:58.470Z,7.85
2018-04-18T13:23:24.494Z,10.40
2018-04-18T13:25:50.490Z,10.15
2018-04-18T13:28:16.517Z,9.55
2018-04-18T13:30:42.526Z,7.97
2018-04-18T13:33:08.554Z,10.50
2018-04-18T13:35:34.561Z,10.13
2018-04-18T13:38:00.600Z,10.52
2018-04-18T13:40:26.631Z,7.82
2018-04-18T13:42:52.658Z,6.95
2018-04-18T13:45:18.682Z,5.90
2018-04-18T13:47:44.708Z,7.60
2018-04-18T13:50:10.763Z,14.65
2018-04-18T13:52:36.807Z,9.50
2018-04-18T13:55:02.867Z,8.32
2018-04-18T13:57:29.661Z,6.25
2018-04-18T13:59:55.676Z,7.28
2018-04-18T14:02:21.691Z,6.28
2018-04-18T14:04:48.449Z,6.28
2018-04-18T14:07:15.219Z,6.03
2018-04-18T14:09:41.234Z,7.93
2018-04-18T14:12:07.987Z,5.97
2018-04-18T14:14:34.762Z,5.03
2018-04-18T14:17:00.778Z,5.05
2018-04-18T14:19:27.603Z,4.45
2018-04-18T14:21:53.614Z,7.57
2018-04-18T14:24:19.677Z,5.45
2018-04-18T14:26:45.677Z,5.70
2018-04-18T14:29:11.686Z,5.35
2018-04-18T14:31:37.699Z,4.73
2018-04-18T14:34:03.721Z,5.60
2018-04-18T14:36:29.795Z,6.35
2018-04-18T14:38:56.615Z,6.97
2018-04-18T14:41:22.631Z,5.80
2018-04-18T14:43:48.674Z,7.00
2018-04-18T14:46:14.677Z,4.93
2018-04-18T14:48:40.718Z,5.28
2018-04-18T14:51:06.820Z,5.93
2018-04-18T14:53:33.600Z,8.33
2018-04-18T14:55:59.659Z,9.63
2018-04-18T14:58:25.675Z,4.20
2018-04-18T15:00:51.743Z,4.22
2018-04-18T15:03:17.768Z,6.87
2018-04-18T15:05:43.859Z,3.70
2018-04-18T15:08:09.843Z,3.80
2018-04-18T15:10:35.909Z,5.17
2018-04-18T15:13:02.754Z,4.00
2018-04-18T15:15:28.778Z,3.67
2018-04-18T15:17:54.806Z,6.43
2018-04-18T15:20:20.834Z,6.10
2018-04-18T15:22:46.894Z,5.20
2018-04-18T15:25:12.882Z,5.13
2018-04-18T15:27:38.895Z,8.00
2018-04-18T15:30:05.657Z,6.30
2018-04-18T15:32:31.673Z,5.37
2018-04-18T15:34:58.429Z,3.57
2018-04-18T15:37:25.262Z,4.33
2018-04-18T15:39:51.279Z,6.93
2018-04-18T15:42:17.290Z,6.60
2018-04-18T15:44:43.355Z,6.07
2018-04-18T15:47:09.336Z,6.10
2018-04-18T15:49:36.117Z,4.80
2018-04-18T15:52:02.170Z,7.03
2018-04-18T15:54:28.194Z,6.10
2018-04-18T15:56:54.267Z,3.80
2018-04-18T15:59:20.285Z,4.33
2018-04-18T16:01:46.311Z,5.47
2018-04-18T16:04:12.326Z,6.43
2018-04-18T16:06:38.358Z,6.97
2018-04-18T16:09:04.427Z,4.30
2018-04-18T16:11:30.463Z,4.97
2018-04-18T16:13:56.489Z,10.90
2018-04-18T16:16:22.514Z,6.80
2018-04-18T16:18:48.529Z,5.63
2018-04-18T16:21:14.547Z,6.43
2018-04-18T16:23:40.751Z,5.77
2018-04-18T16:26:06.848Z,5.93
2018-04-18T16:28:32.940Z,4.73
2018-04-18T16:30:59.052Z,5.77
2018-04-18T16:33:25.050Z,4.90
2018-04-18T16:35:51.065Z,8.60
2018-04-18T16:38:17.821Z,5.70
2018-04-18T16:40:44.603Z,6.67
2018-04-18T16:43:10.709Z,7.90
2018-04-18T16:45:37.470Z,7.97
2018-04-18T16:48:04.230Z,4.93
2018-04-18T16:50:30.412Z,4.73
2018-04-18T16:52:56.460Z,6.27
2018-04-18T16:55:22.480Z,12.10
2018-04-18T16:57:48.502Z,8.03
2018-04-18T17:00:14.567Z,6.43
2018-04-18T17:02:40.530Z,5.43
2018-04-18T17:05:07.281Z,5.83
2018-04-18T17:07:34.049Z,3.47
2018-04-18T17:10:00.072Z,6.30
2018-04-18T17:12:26.824Z,3.67
2018-04-18T17:14:53.591Z,7.87
2018-04-18T17:17:19.799Z,12.67
2018-04-18T17:19:45.821Z,3.73
2018-04-18T17:22:11.877Z,6.80
2018-04-18T17:24:37.904Z,4.33
2018-04-18T17:27:04.006Z,3.20
2018-04-18T17:29:30.004Z,5.73
2018-04-18T17:31:56.037Z,3.40
2018-04-18T17:34:22.818Z,7.23
2018-04-18T17:36:48.880Z,4.23
2018-04-18T17:39:14.901Z,5.00
2018-04-18T17:41:40.926Z,4.10
2018-04-18T17:44:06.945Z,4.40
2018-04-18T17:46:32.959Z,3.53
2018-04-18T17:48:59.717Z,7.63
2018-04-18T17:51:26.533Z,7.93
2018-04-18T17:53:52.551Z,8.67
2018-04-18T17:56:19.409Z,4.03
2018-04-18T17:58:45.431Z,3.57
2018-04-18T18:01:11.438Z,7.43
2018-04-18T18:03:38.209Z,9.33
2018-04-18T18:06:04.396Z,3.50
2018-04-18T18:08:30.426Z,3.63
2018-04-18T18:10:56.525Z,6.50
2018-04-18T18:13:22.533Z,5.47
2018-04-18T18:15:49.288Z,5.40
2018-04-18T18:18:16.045Z,9.80
2018-04-18T18:20:42.183Z,4.13
2018-04-18T18:23:08.226Z,9.43
2018-04-18T18:25:34.244Z,3.30
2018-04-18T18:28:01.002Z,7.83
2018-04-18T18:30:27.070Z,3.57
2018-04-18T18:32:53.114Z,3.73
2018-04-18T18:35:19.133Z,3.40
2018-04-18T18:37:45.174Z,3.80
2018-04-18T18:40:11.215Z,5.57
2018-04-18T18:42:37.241Z,4.97
2018-04-18T18:45:03.263Z,4.90
2018-04-18T18:47:29.315Z,5.63
2018-04-18T18:49:55.397Z,5.77
2018-04-18T18:52:21.399Z,7.23
2018-04-18T18:54:47.414Z,5.20
2018-04-18T18:57:13.423Z,5.23
2018-04-18T18:59:40.285Z,5.30
2018-04-18T19:02:07.036Z,7.67
2018-04-18T19:04:33.806Z,4.93
2018-04-18T19:06:59.817Z,7.20
2018-04-18T19:09:26.569Z,8.90
2018-04-18T19:11:53.363Z,7.20
2018-04-18T19:14:19.381Z,6.90
2018-04-18T19:16:45.381Z,5.43
2018-04-18T19:19:11.410Z,7.27
2018-04-18T19:21:37.428Z,8.83
2018-04-18T19:24:03.443Z,9.63
2018-04-18T19:26:29.465Z,9.53
2018-04-18T19:28:55.510Z,11.47
2018-04-18T19:31:21.523Z,11.20
2018-04-18T19:33:47.552Z,7.47
2018-04-18T19:36:14.319Z,6.77
2018-04-18T19:38:40.331Z,8.20
2018-04-18T19:41:07.098Z,14.70
2018-04-18T19:43:33.106Z,8.57
2018-04-18T19:45:59.145Z,12.20
2018-04-18T19:48:25.162Z,11.10
2018-04-18T19:50:51.197Z,11.43
2018-04-18T19:53:17.982Z,11.30
2018-04-18T19:55:44.849Z,15.00
2018-04-18T19:58:10.863Z,13.77
2018-04-18T20:00:37.660Z,11.30
2018-04-18T20:03:03.678Z,13.10
2018-04-18T20:05:29.711Z,14.27
2018-04-18T20:07:55.788Z,15.03
2018-04-18T20:10:21.825Z,14.57
2018-04-18T20:12:47.831Z,14.60
2018-04-18T20:15:13.864Z,16.30
2018-04-18T20:17:39.879Z,14.27
2018-04-18T20:20:06.667Z,17.13
2018-04-18T20:22:32.720Z,18.90
2018-04-18T20:24:58.714Z,18.37
2018-04-18T20:27:24.723Z,18.30
2018-04-18T20:29:50.734Z,15.80
2018-04-18T20:32:16.747Z,15.53
2018-04-18T20:34:42.757Z,15.30
2018-04-18T20:37:08.762Z,14.43
2018-04-18T20:39:35.570Z,17.70
2018-04-18T20:42:01.591Z,20.00
2018-04-18T20:44:27.686Z,16.90
2018-04-18T20:46:53.685Z,14.03
2018-04-18T20:49:19.693Z,21.03
2018-04-18T20:51:45.714Z,20.60
2018-04-18T20:54:11.736Z,18.37
2018-04-18T20:56:38.498Z,15.20
2018-04-18T20:59:05.255Z,20.67
2018-04-18T21:01:31.279Z,18.00
2018-04-18T21:03:58.035Z,14.73
2018-04-18T21:06:24.804Z,14.73
2018-04-18T21:08:50.842Z,15.80
2018-04-18T21:11:16.841Z,17.60
2018-04-18T21:13:42.918Z,17.33
2018-04-18T21:16:08.886Z,19.83
2018-04-18T21:18:34.898Z,15.80
2018-04-18T21:21:00.951Z,14.50
2018-04-18T21:23:26.959Z,17.00
2018-04-18T21:25:52.972Z,18.40
2018-04-18T21:28:19.719Z,16.00
2018-04-18T21:30:46.478Z,18.30
2018-04-18T21:33:13.246Z,17.43
2018-04-18T21:35:39.260Z,18.27
2018-04-18T21:38:06.026Z,15.50
2018-04-18T21:40:32.034Z,21.27
2018-04-18T21:42:58.061Z,19.77
2018-04-18T21:45:24.078Z,17.50
2018-04-18T21:47:50.105Z,15.20
2018-04-18T21:50:16.110Z,16.50
2018-04-18T21:52:42.120Z,20.67
2018-04-18T21:55:15.971Z,18.70
2018-04-18T21:57:41.984Z,24.10
2018-04-18T22:00:08.743Z,18.80
2018-04-18T22:02:34.767Z,17.23
2018-04-18T22:05:01.509Z,19.60
2018-04-18T22:07:27.517Z,16.63
2018-04-18T22:09:53.550Z,13.73
2018-04-18T22:12:19.558Z,16.13
2018-04-18T22:14:45.568Z,21.47
2018-04-18T22:17:11.603Z,18.57
2018-04-18T22:19:38.355Z,17.87
2018-04-18T22:22:05.125Z,15.93
2018-04-18T22:24:31.130Z,14.73
2018-04-18T22:26:57.895Z,14.93
2018-04-18T22:29:24.651Z,17.30
2018-04-18T22:31:50.665Z,17.37
2018-04-18T22:34:16.689Z,13.17
2018-04-18T22:36:42.703Z,16.67
2018-04-18T22:39:08.713Z,15.93
2018-04-18T22:41:34.719Z,17.90
2018-04-18T22:44:01.481Z,16.67
2018-04-18T22:46:28.242Z,17.20
2018-04-18T22:48:54.255Z,16.87
2018-04-18T22:51:20.267Z,20.27
2018-04-18T22:53:46.288Z,13.77
2018-04-18T22:56:12.301Z,17.80
2018-04-18T22:58:38.298Z,15.50
2018-04-18T23:01:04.293Z,18.50
2018-04-18T23:03:30.293Z,19.70
2018-04-18T23:05:56.277Z,15.90
2018-04-18T23:08:22.290Z,14.03
2018-04-18T23:10:48.286Z,17.83
2018-04-18T23:13:15.032Z,18.60
2018-04-18T23:15:41.770Z,17.20
2018-04-18T23:18:07.790Z,15.57
2018-04-18T23:20:33.792Z,13.70
2018-04-18T23:22:59.816Z,22.47
2018-04-18T23:25:25.824Z,14.43
2018-04-18T23:27:52.558Z,17.50
2018-04-18T23:30:18.554Z,16.27
2018-04-18T23:32:44.569Z,19.73
2018-04-18T23:35:10.562Z,17.70
2018-04-18T23:37:36.565Z,22.33
2018-04-18T23:40:02.582Z,15.80
2018-04-18T23:42:28.573Z,14.77
2018-04-18T23:44:54.594Z,14.80
2018-04-18T23:47:20.601Z,15.53
2018-04-18T23:49:46.619Z,15.27
2018-04-18T23:52:12.620Z,17.00
2018-04-18T23:54:38.613Z,22.20
2018-04-18T23:57:04.600Z,19.03
2018-04-18T23:59:31.348Z,18.87
